Time;durP1;ratioP1;P1;durP2;ratioP2;P2;SDS_P1;SDS_P2;PMS_P1;PMS_P2;Temp;Humidity;BMP_temperature;BMP_pressure;BME280_temperature;BME280_humidity;BME280_pressure;Samples;Min_cycle;Max_cycle;Signal;HPM_P1;HPM_P2
2022/11/30 00:01:22;;;;;;;42.70;28.58;;;;;;;6.67;100.00;98485.84;5007099;28;20125;-63
2022/11/30 00:03:50;;;;;;;39.50;27.70;;;;;;;6.27;100.00;98432.19;4990165;28;20051;-65
2022/11/30 00:06:21;;;;;;;41.70;27.92;;;;;;;6.09;100.00;98462.84;4995673;28;20029;-68
2022/11/30 00:08:53;;;;;;;40.70;26.48;;;;;;;6.19;100.00;98476.69;4993408;28;20049;-61
2022/11/30 00:11:20;;;;;;;44.22;27.25;;;;;;;6.33;100.00;98471.28;4984709;28;20038;-66
2022/11/30 00:13:46;;;;;;;40.40;26.42;;;;;;;6.38;100.00;98470.09;4977593;28;20141;-63
2022/11/30 00:16:11;;;;;;;38.40;24.73;;;;;;;6.02;100.00;98413.47;4987593;28;20433;-61
2022/11/30 00:18:37;;;;;;;40.78;24.85;;;;;;;6.39;100.00;98466.53;5003884;28;20472;-65
2022/11/30 00:21:04;;;;;;;44.28;26.63;;;;;;;6.42;100.00;98456.78;4999240;28;20037;-63
2022/11/30 00:23:35;;;;;;;44.67;25.17;;;;;;;6.43;100.00;98452.47;4993693;28;20041;-62
2022/11/30 00:26:02;;;;;;;38.83;25.45;;;;;;;6.37;100.00;98447.78;4987324;28;20096;-66
2022/11/30 00:28:28;;;;;;;41.10;25.77;;;;;;;6.10;100.00;98405.13;4996603;28;20172;-64
2022/11/30 00:31:02;;;;;;;42.08;26.77;;;;;;;6.02;100.00;98408.31;5003500;28;20042;-61
2022/11/30 00:33:30;;;;;;;41.90;26.65;;;;;;;6.07;100.00;98413.13;5013686;28;20069;-66
2022/11/30 00:35:57;;;;;;;36.75;22.85;;;;;;;6.18;100.00;98446.66;4978677;28;20129;-63
2022/11/30 00:38:23;;;;;;;35.28;20.45;;;;;;;6.15;100.00;98429.66;4983801;28;20042;-63
2022/11/30 00:40:49;;;;;;;34.92;21.35;;;;;;;6.04;100.00;98434.84;5003562;28;20076;-62
2022/11/30 00:43:14;;;;;;;33.10;21.48;;;;;;;6.03;100.00;98438.34;5004789;28;20038;-66
2022/11/30 00:45:40;;;;;;;33.45;21.70;;;;;;;6.06;100.00;98434.69;5004045;28;20083;-66
2022/11/30 00:48:05;;;;;;;34.17;22.05;;;;;;;6.04;100.00;98434.84;4997083;28;20072;-63
2022/11/30 00:50:31;;;;;;;33.08;21.25;;;;;;;5.89;100.00;98426.47;5014689;28;20105;-65
2022/11/30 00:52:56;;;;;;;35.15;22.13;;;;;;;5.93;100.00;98435.66;4978336;28;20439;-65
2022/11/30 00:55:21;;;;;;;33.53;21.85;;;;;;;5.97;100.00;98426.75;4998233;28;20491;-60
2022/11/30 00:57:47;;;;;;;34.67;22.20;;;;;;;5.73;100.00;98400.22;4995732;28;20109;-61
2022/11/30 01:00:13;;;;;;;36.78;22.98;;;;;;;5.68;100.00;98395.44;5008592;28;20567;-67
2022/11/30 01:02:38;;;;;;;37.50;24.30;;;;;;;5.91;100.00;98439.25;5002840;28;20042;-71
2022/11/30 01:05:04;;;;;;;36.58;23.13;;;;;;;5.46;100.00;98398.84;5015551;28;20607;-64
2022/11/30 01:07:29;;;;;;;36.97;23.48;;;;;;;5.68;100.00;98449.63;5005036;28;20511;-64
2022/11/30 01:09:54;;;;;;;39.78;24.95;;;;;;;5.62;100.00;98442.31;4999464;28;20034;-68
2022/11/30 01:12:20;;;;;;;41.92;25.05;;;;;;;5.59;100.00;98443.41;5008395;28;20045;-65
2022/11/30 01:14:45;;;;;;;40.35;25.90;;;;;;;5.51;100.00;98440.59;5003634;28;20465;-65
2022/11/30 01:17:11;;;;;;;41.42;25.17;;;;;;;5.22;100.00;98396.38;5004206;28;20030;-63
2022/11/30 01:19:36;;;;;;;39.20;23.63;;;;;;;5.61;100.00;98439.88;5004022;28;20663;-68
2022/11/30 01:22:01;;;;;;;38.40;24.38;;;;;;;5.61;100.00;98432.97;5019230;28;20477;-63
2022/11/30 01:24:27;;;;;;;37.90;24.92;;;;;;;5.47;100.00;98440.94;5006879;28;20034;-62
2022/11/30 01:26:52;;;;;;;42.75;24.65;;;;;;;5.47;100.00;98444.31;5001764;28;20137;-67
2022/11/30 01:29:18;;;;;;;40.40;25.40;;;;;;;5.48;100.00;98443.41;5002087;28;20069;-65
2022/11/30 01:31:43;;;;;;;41.40;25.80;;;;;;;5.43;100.00;98445.50;5005261;28;20065;-62
2022/11/30 01:34:08;;;;;;;39.45;23.88;;;;;;;5.48;100.00;98440.00;4984662;28;20053;-62
2022/11/30 01:36:35;;;;;;;37.30;24.42;;;;;;;5.47;100.00;98441.75;5019406;28;20037;-65
2022/11/30 01:39:00;;;;;;;33.97;23.17;;;;;;;5.35;100.00;98442.69;5017323;28;20087;-67
2022/11/30 01:41:31;;;;;;;35.38;22.08;;;;;;;5.34;100.00;98436.69;5001827;28;20450;-65
2022/11/30 01:44:16;;;;;;;35.65;23.35;;;;;;;5.20;100.00;98439.47;4985847;28;20077;-63
2022/11/30 01:46:46;;;;;;;35.45;23.20;;;;;;;5.21;100.00;98438.56;5002969;28;20046;-65
2022/11/30 01:49:34;;;;;;;36.88;24.20;;;;;;;5.33;100.00;98435.06;5000412;28;20048;-64
2022/11/30 01:52:04;;;;;;;35.70;22.10;;;;;;;5.37;100.00;98433.91;5003568;28;20053;-66
2022/11/30 01:54:34;;;;;;;36.95;23.00;;;;;;;5.39;100.00;98441.50;4996901;28;20041;-65
2022/11/30 01:57:08;;;;;;;36.47;23.42;;;;;;;5.14;100.00;98443.34;4977238;28;20034;-64
2022/11/30 01:59:33;;;;;;;38.15;23.92;;;;;;;5.00;100.00;98446.97;4999863;28;20076;-62
2022/11/30 02:01:59;;;;;;;37.25;23.90;;;;;;;5.09;100.00;98436.88;5008351;28;20703;-62
2022/11/30 02:04:30;;;;;;;35.45;23.55;;;;;;;5.06;100.00;98437.94;4996463;28;20714;-66
2022/11/30 02:06:57;;;;;;;38.85;23.50;;;;;;;5.00;100.00;98413.47;4989855;28;20179;-65
2022/11/30 02:09:22;;;;;;;37.00;22.73;;;;;;;4.84;100.00;98399.22;4982802;28;20050;-65
2022/11/30 02:11:48;;;;;;;37.35;23.20;;;;;;;5.04;100.00;98437.25;5020891;28;20065;-65
2022/11/30 02:14:36;;;;;;;34.67;21.92;;;;;;;4.82;100.00;98435.44;5015530;28;20037;-63
2022/11/30 02:17:01;;;;;;;38.13;23.10;;;;;;;4.90;100.00;98434.88;5000252;28;20041;-63
2022/11/30 02:19:33;;;;;;;42.38;24.48;;;;;;;4.70;100.00;98400.25;5006787;28;20057;-62
2022/11/30 02:22:13;;;;;;;34.70;22.48;;;;;;;4.81;100.00;98434.59;5003539;28;20037;-65
2022/11/30 02:25:00;;;;;;;37.20;22.98;;;;;;;4.37;100.00;98389.72;5011732;28;20042;-62
2022/11/30 02:28:12;;;;;;;37.67;23.27;;;;;;;4.75;100.00;98434.25;5000740;28;20034;-66
2022/11/30 02:30:41;;;;;;;31.85;20.60;;;;;;;4.77;100.00;98433.19;4971965;28;20042;-65
2022/11/30 02:33:10;;;;;;;34.90;21.52;;;;;;;4.35;100.00;98394.16;4997298;28;20116;-65
2022/11/30 02:35:38;;;;;;;36.03;22.40;;;;;;;4.75;100.00;98436.81;4981796;28;20073;-66
2022/11/30 02:38:04;;;;;;;37.10;21.92;;;;;;;4.68;100.00;98430.47;4993784;28;20468;-67
2022/11/30 02:40:30;;;;;;;37.78;23.33;;;;;;;4.66;100.00;98440.88;4992688;28;20037;-64
2022/11/30 02:42:57;;;;;;;37.55;22.13;;;;;;;4.73;100.00;98441.25;4984871;28;20042;-64
2022/11/30 02:45:33;;;;;;;37.42;22.40;;;;;;;4.59;100.00;98445.63;5000754;28;20037;-64
2022/11/30 02:48:07;;;;;;;36.85;22.27;;;;;;;4.53;100.00;98442.72;5015014;28;20099;-63
2022/11/30 02:50:38;;;;;;;36.53;24.00;;;;;;;4.59;100.00;98452.56;5015852;28;20038;-64
2022/11/30 02:53:04;;;;;;;34.08;21.42;;;;;;;4.64;100.00;98458.19;5006722;28;20038;-64
2022/11/30 02:55:30;;;;;;;35.35;22.42;;;;;;;4.65;100.00;98464.16;5015959;28;20111;-64
2022/11/30 02:57:56;;;;;;;35.88;24.05;;;;;;;4.43;100.00;98458.81;5018408;28;20034;-62
2022/11/30 03:00:21;;;;;;;36.22;23.15;;;;;;;4.51;100.00;98455.69;5017271;28;20033;-62
2022/11/30 03:02:47;;;;;;;37.42;23.55;;;;;;;4.17;100.00;98403.22;4999970;28;20041;-66
2022/11/30 03:05:12;;;;;;;35.85;23.00;;;;;;;4.53;100.00;98453.81;5011196;28;20551;-65
2022/11/30 03:07:38;;;;;;;35.80;23.55;;;;;;;4.46;100.00;98446.66;5003345;28;20033;-66
2022/11/30 03:10:05;;;;;;;35.80;23.15;;;;;;;4.26;100.00;98419.75;5017970;28;20566;-67
2022/11/30 03:12:30;;;;;;;33.78;22.00;;;;;;;4.10;100.00;98420.84;5003095;28;20034;-67
2022/11/30 03:14:55;;;;;;;31.85;21.85;;;;;;;4.06;100.00;98421.97;5003189;28;20092;-65
2022/11/30 03:17:21;;;;;;;35.83;22.33;;;;;;;4.35;100.00;98457.72;4996925;28;20738;-64
2022/11/30 03:19:46;;;;;;;36.67;23.08;;;;;;;4.31;100.00;98472.56;4986206;28;20044;-66
2022/11/30 03:22:12;;;;;;;36.03;22.52;;;;;;;4.00;100.00;98425.81;5010063;28;20045;-65
2022/11/30 03:24:37;;;;;;;37.42;22.33;;;;;;;4.13;100.00;98464.38;5004234;28;20036;-62
2022/11/30 03:27:02;;;;;;;35.80;22.52;;;;;;;3.88;100.00;98431.81;4999142;28;20585;-66
2022/11/30 03:29:28;;;;;;;32.17;21.38;;;;;;;4.26;100.00;98473.81;5022591;28;20056;-65
2022/11/30 03:31:53;;;;;;;34.67;21.92;;;;;;;3.93;100.00;98434.88;5013624;28;20037;-61
2022/11/30 03:34:18;;;;;;;39.33;22.27;;;;;;;4.22;100.00;98478.34;4997128;28;20889;-62
2022/11/30 03:36:44;;;;;;;40.03;21.98;;;;;;;4.34;100.00;98480.03;4998581;28;20468;-64
2022/11/30 03:39:09;;;;;;;34.85;20.95;;;;;;;4.31;100.00;98480.28;5015884;28;20033;-64
2022/11/30 03:41:35;;;;;;;39.80;21.95;;;;;;;4.18;100.00;98469.19;5001734;28;20119;-65
2022/11/30 03:44:00;;;;;;;36.55;22.27;;;;;;;4.28;100.00;98479.66;5001052;28;20042;-64
2022/11/30 03:46:26;;;;;;;34.67;21.38;;;;;;;4.14;100.00;98467.75;5001468;28;20029;-65
2022/11/30 03:48:52;;;;;;;40.95;22.88;;;;;;;4.28;100.00;98465.03;5001688;28;20103;-61
2022/11/30 03:51:17;;;;;;;33.42;21.42;;;;;;;4.34;100.00;98456.88;5016295;28;20097;-65
2022/11/30 03:53:43;;;;;;;36.25;21.20;;;;;;;4.49;100.00;98464.44;4983595;28;20037;-67
2022/11/30 03:56:09;;;;;;;35.70;21.83;;;;;;;4.40;100.00;98455.63;5014581;28;20107;-61
2022/11/30 03:58:35;;;;;;;36.45;22.60;;;;;;;4.45;100.00;98463.00;5003973;28;21507;-65
2022/11/30 04:01:00;;;;;;;35.85;21.88;;;;;;;4.49;100.00;98467.00;4983697;28;20156;-63
2022/11/30 04:03:26;;;;;;;35.28;22.10;;;;;;;4.35;100.00;98447.41;4999781;28;20026;-61
2022/11/30 04:05:52;;;;;;;33.22;21.63;;;;;;;4.51;100.00;98455.69;5000712;28;20041;-66
2022/11/30 04:08:17;;;;;;;33.25;21.55;;;;;;;4.54;100.00;98455.44;5000436;28;20120;-71
2022/11/30 04:10:46;;;;;;;33.20;21.23;;;;;;;4.56;100.00;98452.75;4997441;28;20041;-64
2022/11/30 04:13:11;;;;;;;33.23;21.57;;;;;;;4.51;100.00;98444.53;4981103;28;20476;-67
2022/11/30 04:15:37;;;;;;;34.90;21.88;;;;;;;4.47;100.00;98441.38;5006888;28;20104;-62
2022/11/30 04:18:02;;;;;;;37.22;22.50;;;;;;;4.40;100.00;98443.59;5002374;28;20080;-63
2022/11/30 04:20:28;;;;;;;37.45;22.50;;;;;;;4.36;100.00;98443.88;5006844;28;20071;-67
2022/11/30 04:22:58;;;;;;;35.67;22.27;;;;;;;4.50;100.00;98448.06;5001771;28;20554;-67
2022/11/30 04:25:23;;;;;;;34.72;21.05;;;;;;;4.52;100.00;98448.78;5002580;28;20196;-63
2022/11/30 04:27:49;;;;;;;34.25;21.52;;;;;;;4.63;100.00;98451.38;5019124;28;20053;-62
2022/11/30 04:30:15;;;;;;;36.65;21.73;;;;;;;4.61;100.00;98442.97;4995251;28;20049;-71
2022/11/30 04:32:40;;;;;;;34.00;20.73;;;;;;;4.59;100.00;98442.25;5000269;28;20030;-68
2022/11/30 04:35:06;;;;;;;33.83;21.17;;;;;;;4.73;100.00;98452.38;5001965;28;20747;-62
2022/11/30 04:37:32;;;;;;;34.72;21.00;;;;;;;4.72;100.00;98442.19;4996289;28;20045;-61
2022/11/30 04:39:57;;;;;;;34.58;22.30;;;;;;;4.66;100.00;98440.88;5016903;28;20030;-64
2022/11/30 04:42:23;;;;;;;33.35;21.30;;;;;;;4.53;100.00;98425.50;5000621;28;20088;-62
2022/11/30 04:44:48;;;;;;;36.67;22.35;;;;;;;4.56;100.00;98452.75;5001199;28;20109;-61
2022/11/30 04:47:14;;;;;;;33.97;21.38;;;;;;;4.43;100.00;98451.09;4995557;28;20144;-63
2022/11/30 04:49:39;;;;;;;38.75;22.77;;;;;;;4.59;100.00;98449.97;5004998;28;20542;-64
2022/11/30 04:52:04;;;;;;;34.92;22.08;;;;;;;4.55;100.00;98451.94;5020582;28;20038;-65
2022/11/30 04:54:30;;;;;;;38.05;21.90;;;;;;;4.53;100.00;98453.00;4997686;28;20068;-61
2022/11/30 04:56:55;;;;;;;36.90;22.05;;;;;;;4.61;100.00;98450.69;4996267;28;20038;-66
2022/11/30 04:59:21;;;;;;;36.72;22.48;;;;;;;4.63;100.00;98443.66;4999225;28;20477;-64
2022/11/30 05:01:46;;;;;;;35.13;22.15;;;;;;;4.74;100.00;98448.03;4998313;28;20045;-61
2022/11/30 05:04:11;;;;;;;34.35;22.33;;;;;;;4.79;100.00;98459.66;4997281;28;20116;-66
2022/11/30 05:06:37;;;;;;;33.08;20.95;;;;;;;4.67;100.00;98452.81;4997326;28;20057;-62
2022/11/30 05:09:02;;;;;;;34.05;21.45;;;;;;;4.60;100.00;98451.63;5003780;28;20029;-65
2022/11/30 05:11:28;;;;;;;36.15;21.23;;;;;;;4.60;100.00;98449.06;5014510;28;20038;-66
2022/11/30 05:13:53;;;;;;;34.45;20.55;;;;;;;4.54;100.00;98450.28;5000176;28;20038;-63
2022/11/30 05:16:18;;;;;;;34.88;20.77;;;;;;;4.42;100.00;98410.81;4998800;28;20147;-62
2022/11/30 05:18:44;;;;;;;31.85;20.95;;;;;;;4.76;100.00;98444.44;5000130;28;20030;-66
2022/11/30 05:21:10;;;;;;;32.58;19.73;;;;;;;4.63;100.00;98441.91;5000167;28;20042;-63
2022/11/30 05:23:35;;;;;;;33.25;19.83;;;;;;;4.74;100.00;98450.63;4998437;28;20113;-64
2022/11/30 05:26:02;;;;;;;32.63;20.55;;;;;;;4.74;100.00;98459.16;5003346;28;20120;-64
2022/11/30 05:28:28;;;;;;;31.55;19.73;;;;;;;4.82;100.00;98459.44;4993263;28;20108;-61
2022/11/30 05:30:53;;;;;;;31.85;20.13;;;;;;;4.76;100.00;98459.88;4997681;28;20045;-61
2022/11/30 05:33:19;;;;;;;32.63;20.60;;;;;;;4.87;100.00;98466.81;4999902;28;20488;-61
2022/11/30 05:35:44;;;;;;;33.33;19.90;;;;;;;4.74;100.00;98464.31;5002538;28;20030;-63
2022/11/30 05:38:10;;;;;;;34.75;20.15;;;;;;;4.55;100.00;98453.72;5013551;28;20031;-63
2022/11/30 05:40:35;;;;;;;34.97;21.23;;;;;;;4.55;100.00;98469.16;5013749;28;20030;-63
2022/11/30 05:43:02;;;;;;;35.80;20.65;;;;;;;4.65;100.00;98461.59;4990036;28;20400;-67
2022/11/30 05:45:28;;;;;;;33.13;20.63;;;;;;;4.57;100.00;98469.88;5019422;28;20404;-65
2022/11/30 05:47:53;;;;;;;32.35;20.10;;;;;;;4.53;100.00;98456.41;4999738;28;20048;-64
2022/11/30 05:50:19;;;;;;;33.20;19.25;;;;;;;4.65;100.00;98472.69;5016156;28;20404;-65
2022/11/30 05:52:45;;;;;;;32.90;19.30;;;;;;;4.63;100.00;98459.13;5003599;28;20123;-65
2022/11/30 05:55:10;;;;;;;31.95;19.33;;;;;;;4.80;100.00;98461.31;5010129;28;20065;-62
2022/11/30 05:57:37;;;;;;;37.67;20.67;;;;;;;4.80;100.00;98456.16;5002171;28;20042;-65
2022/11/30 06:00:08;;;;;;;35.55;20.48;;;;;;;4.84;100.00;98461.91;4983136;28;20041;-68
2022/11/30 06:02:33;;;;;;;32.42;19.50;;;;;;;4.84;100.00;98458.47;4992903;28;20386;-61
2022/11/30 06:04:59;;;;;;;31.73;19.67;;;;;;;4.85;100.00;98452.41;5000625;28;20103;-61
2022/11/30 06:07:24;;;;;;;30.95;19.38;;;;;;;4.82;100.00;98446.56;5003119;28;20029;-64
2022/11/30 06:09:49;;;;;;;34.20;21.02;;;;;;;4.95;100.00;98464.50;5000429;28;20032;-64
2022/11/30 06:12:15;;;;;;;34.20;20.70;;;;;;;4.75;100.00;98455.66;5003634;28;20048;-63
2022/11/30 06:14:40;;;;;;;32.10;20.50;;;;;;;4.78;100.00;98458.03;5000887;28;20036;-68
2022/11/30 06:17:06;;;;;;;31.98;19.48;;;;;;;4.73;100.00;98460.09;5011820;28;20029;-63
2022/11/30 06:19:31;;;;;;;33.15;19.92;;;;;;;4.79;100.00;98446.78;5010993;28;20116;-62
2022/11/30 06:21:57;;;;;;;31.02;19.42;;;;;;;4.77;100.00;98438.34;4998358;28;20072;-63
2022/11/30 06:24:22;;;;;;;33.15;20.42;;;;;;;4.90;100.00;98466.59;5009322;28;20112;-68
2022/11/30 06:26:48;;;;;;;31.23;19.65;;;;;;;4.94;100.00;98462.03;5007288;28;20109;-66
2022/11/30 06:29:13;;;;;;;34.78;20.20;;;;;;;4.87;100.00;98455.69;4995237;28;20029;-61
2022/11/30 06:31:38;;;;;;;37.88;22.30;;;;;;;4.70;100.00;98413.97;5012089;28;20050;-61
2022/11/30 06:34:04;;;;;;;31.92;20.55;;;;;;;4.98;100.00;98458.28;5006379;28;20117;-64
2022/11/30 06:36:30;;;;;;;30.95;19.55;;;;;;;4.89;100.00;98454.66;4999503;28;20085;-67
2022/11/30 06:38:56;;;;;;;36.58;22.13;;;;;;;5.07;100.00;98457.63;4996065;28;20033;-62
2022/11/30 06:41:21;;;;;;;34.17;20.45;;;;;;;5.09;100.00;98458.34;4994873;28;20546;-65
2022/11/30 06:43:47;;;;;;;35.40;20.80;;;;;;;5.11;100.00;98465.94;4997551;28;20030;-69
2022/11/30 06:46:13;;;;;;;33.60;20.20;;;;;;;5.15;100.00;98465.63;4997065;28;20062;-66
2022/11/30 06:48:38;;;;;;;33.00;19.83;;;;;;;5.18;100.00;98461.97;4993987;28;20849;-64
2022/11/30 06:51:05;;;;;;;37.60;21.25;;;;;;;4.98;100.00;98429.94;4998548;28;20034;-65
2022/11/30 06:53:31;;;;;;;33.60;19.75;;;;;;;5.14;100.00;98470.88;5007337;28;20030;-61
2022/11/30 06:55:56;;;;;;;35.45;20.20;;;;;;;5.09;100.00;98471.25;5006216;28;20043;-62
2022/11/30 06:58:21;;;;;;;30.80;18.52;;;;;;;5.15;100.00;98465.63;5001411;28;20037;-61
2022/11/30 07:00:47;;;;;;;31.30;19.73;;;;;;;5.10;100.00;98482.34;5021107;28;20129;-60
2022/11/30 07:03:12;;;;;;;32.78;20.00;;;;;;;5.04;100.00;98475.06;4984006;28;20543;-65
2022/11/30 07:05:42;;;;;;;35.47;20.08;;;;;;;5.04;100.00;98468.16;5000590;28;20476;-64
2022/11/30 07:08:08;;;;;;;31.70;19.80;;;;;;;5.12;100.00;98477.91;4985770;28;20071;-66
2022/11/30 07:10:38;;;;;;;30.45;19.50;;;;;;;5.05;100.00;98464.66;5019228;28;20030;-63
2022/11/30 07:13:04;;;;;;;32.72;19.83;;;;;;;5.09;100.00;98481.53;4995221;28;20029;-63
2022/11/30 07:15:29;;;;;;;33.13;19.45;;;;;;;5.10;100.00;98477.19;5024294;28;20030;-65
2022/11/30 07:17:54;;;;;;;34.35;19.05;;;;;;;4.77;100.00;98434.94;5000995;28;20037;-69
2022/11/30 07:20:20;;;;;;;33.00;18.00;;;;;;;5.14;100.00;98484.59;5016534;28;20026;-64
2022/11/30 07:22:45;;;;;;;32.03;18.40;;;;;;;5.21;100.00;98487.53;5007527;28;20026;-65
2022/11/30 07:27:54;;;;;;;30.35;18.30;;;;;;;5.13;100.00;98490.69;5011678;28;20069;-64
2022/11/30 07:30:20;;;;;;;30.85;18.27;;;;;;;5.22;100.00;98485.78;5001103;28;20069;-62
2022/11/30 07:32:45;;;;;;;29.60;18.48;;;;;;;5.27;100.00;98489.66;4996791;28;20504;-66
2022/11/30 07:35:11;;;;;;;31.73;19.23;;;;;;;5.27;100.00;98494.00;4984686;28;20034;-65
2022/11/30 07:37:36;;;;;;;32.25;18.20;;;;;;;5.31;100.00;98483.34;4998998;28;20042;-64
2022/11/30 07:40:03;;;;;;;36.97;19.83;;;;;;;5.28;100.00;98487.91;5000921;28;20032;-67
2022/11/30 07:42:29;;;;;;;31.30;19.25;;;;;;;5.31;100.00;98478.19;5002922;28;20132;-62
2022/11/30 07:44:54;;;;;;;28.98;17.90;;;;;;;5.44;100.00;98483.25;5009198;28;20672;-68
2022/11/30 07:47:20;;;;;;;32.72;18.33;;;;;;;5.45;100.00;98502.94;5003904;28;20112;-66
2022/11/30 07:49:45;;;;;;;29.38;17.52;;;;;;;5.43;100.00;98475.63;4994749;28;20041;-70
2022/11/30 07:52:10;;;;;;;26.52;16.55;;;;;;;5.38;100.00;98457.91;5002243;28;20117;-65
2022/11/30 07:54:36;;;;;;;29.05;17.95;;;;;;;5.56;100.00;98495.19;5004969;28;20711;-66
2022/11/30 07:57:01;;;;;;;26.27;16.98;;;;;;;5.40;100.00;98458.59;5002697;28;20029;-62
2022/11/30 07:59:27;;;;;;;25.33;16.20;;;;;;;5.40;100.00;98437.97;5001807;28;20029;-65
2022/11/30 08:01:52;;;;;;;27.92;16.10;;;;;;;5.71;100.00;98501.00;5007216;28;20026;-66
2022/11/30 08:04:17;;;;;;;28.23;17.13;;;;;;;5.74;99.08;98500.72;5000021;28;20481;-64
2022/11/30 08:06:43;;;;;;;28.55;16.98;;;;;;;5.56;98.92;98481.50;5005128;28;20046;-62
2022/11/30 08:09:10;;;;;;;26.80;16.38;;;;;;;5.45;99.54;98453.13;5008071;28;20120;-63
2022/11/30 08:11:36;;;;;;;27.08;16.48;;;;;;;5.85;98.89;98501.69;5013691;28;20354;-61
2022/11/30 08:14:02;;;;;;;29.70;17.58;;;;;;;5.78;99.42;98507.28;4997023;28;20038;-69
2022/11/30 08:16:28;;;;;;;26.67;17.40;;;;;;;5.54;99.72;98460.16;5018294;28;20026;-64
2022/11/30 08:18:55;;;;;;;25.13;16.55;;;;;;;5.43;99.47;98452.41;5007331;28;20432;-62
2022/11/30 08:21:21;;;;;;;26.95;17.00;;;;;;;5.62;99.66;98487.94;4997867;28;20038;-63
2022/11/30 08:23:49;;;;;;;27.35;16.67;;;;;;;5.76;100.00;98504.00;4998140;28;20056;-63
2022/11/30 08:26:20;;;;;;;28.95;17.00;;;;;;;5.71;100.00;98511.31;5014822;28;20030;-64
2022/11/30 08:28:46;;;;;;;28.25;17.55;;;;;;;5.48;100.00;98489.81;4998556;28;20054;-63
2022/11/30 08:31:17;;;;;;;28.58;16.60;;;;;;;5.75;99.87;98514.47;4998011;28;20046;-67
2022/11/30 08:33:43;;;;;;;29.00;17.20;;;;;;;5.82;100.00;98515.63;5000053;28;20069;-66
2022/11/30 08:36:10;;;;;;;28.27;16.88;;;;;;;5.80;100.00;98522.66;5014885;28;20022;-64
2022/11/30 08:38:36;;;;;;;28.73;17.90;;;;;;;5.82;100.00;98525.94;4994285;28;20041;-63
2022/11/30 08:41:02;;;;;;;29.98;18.77;;;;;;;5.82;100.00;98530.28;4994045;28;20049;-63
2022/11/30 08:43:27;;;;;;;29.33;17.42;;;;;;;5.89;100.00;98534.06;4996744;28;20038;-65
2022/11/30 08:45:53;;;;;;;29.92;18.02;;;;;;;5.96;100.00;98538.66;5003814;28;20056;-65
2022/11/30 08:48:19;;;;;;;28.48;17.33;;;;;;;5.89;100.00;98534.88;4993675;28;20527;-63
2022/11/30 08:50:44;;;;;;;27.85;17.92;;;;;;;5.90;100.00;98539.09;4997460;28;20026;-67
2022/11/30 08:53:09;;;;;;;25.98;17.55;;;;;;;5.80;100.00;98535.56;5005585;28;20095;-64
2022/11/30 08:55:35;;;;;;;28.33;17.80;;;;;;;5.68;100.00;98533.94;5017647;28;20135;-65
2022/11/30 08:58:00;;;;;;;28.45;17.63;;;;;;;5.46;100.00;98502.00;5021671;28;20512;-66
2022/11/30 09:00:26;;;;;;;27.55;17.73;;;;;;;5.51;100.00;98512.81;5014378;28;20026;-65
2022/11/30 09:02:51;;;;;;;29.30;18.13;;;;;;;5.68;100.00;98550.22;5015151;28;20113;-63
2022/11/30 09:05:16;;;;;;;31.90;18.58;;;;;;;5.73;100.00;98555.03;4999961;28;20882;-63
2022/11/30 09:07:42;;;;;;;29.85;17.67;;;;;;;5.68;100.00;98547.66;5000737;28;20075;-61
2022/11/30 09:10:08;;;;;;;29.33;17.65;;;;;;;5.84;100.00;98549.06;4983010;28;20162;-67
2022/11/30 09:12:35;;;;;;;28.60;17.92;;;;;;;5.93;100.00;98546.63;5001294;28;20480;-65
2022/11/30 09:15:00;;;;;;;30.02;18.85;;;;;;;5.95;100.00;98570.59;4983366;28;20034;-62
2022/11/30 09:17:26;;;;;;;28.92;18.00;;;;;;;5.95;100.00;98557.69;5003235;28;20030;-65
2022/11/30 09:19:51;;;;;;;29.40;18.40;;;;;;;5.86;100.00;98558.34;5008306;28;20026;-62
2022/11/30 09:22:17;;;;;;;28.63;17.58;;;;;;;5.73;100.00;98561.03;5005385;28;20083;-63
2022/11/30 09:24:42;;;;;;;29.90;18.20;;;;;;;5.85;100.00;98568.78;5004083;28;20723;-61
2022/11/30 09:27:08;;;;;;;30.02;18.55;;;;;;;5.59;100.00;98538.84;5011202;28;20030;-65
2022/11/30 09:29:34;;;;;;;31.27;18.08;;;;;;;5.92;100.00;98570.78;5018021;28;20042;-62
2022/11/30 09:32:00;;;;;;;30.38;19.30;;;;;;;5.74;100.00;98533.47;4985788;28;20440;-63
2022/11/30 09:34:25;;;;;;;31.60;19.55;;;;;;;5.99;100.00;98570.31;5001611;28;20038;-64
2022/11/30 09:36:51;;;;;;;30.65;18.75;;;;;;;6.02;100.00;98564.94;4988986;28;20107;-62
2022/11/30 09:39:16;;;;;;;28.63;18.30;;;;;;;5.99;100.00;98575.50;5000505;28;20465;-64
2022/11/30 09:42:02;;;;;;;32.15;19.13;;;;;;;6.13;100.00;98591.59;4987015;28;20760;-63
2022/11/30 09:44:36;;;;;;;31.35;20.23;;;;;;;5.97;100.00;98576.44;5002139;28;20026;-67
2022/11/30 09:47:08;;;;;;;30.48;20.75;;;;;;;5.71;100.00;98544.84;4997200;28;20026;-65
2022/11/30 09:49:36;;;;;;;33.10;20.48;;;;;;;6.02;100.00;98583.81;5009868;28;20037;-62
2022/11/30 09:52:04;;;;;;;36.03;20.80;;;;;;;6.06;100.00;98585.25;4986429;28;20022;-64
2022/11/30 09:54:34;;;;;;;33.92;20.95;;;;;;;6.07;100.00;98571.41;5013128;28;20038;-63
2022/11/30 09:57:08;;;;;;;32.75;19.00;;;;;;;5.89;100.00;98575.34;4989300;28;20398;-64
2022/11/30 09:59:36;;;;;;;35.88;21.55;;;;;;;5.89;100.00;98567.59;5005731;28;20026;-64
2022/11/30 10:02:13;;;;;;;35.67;20.70;;;;;;;5.73;100.00;98558.44;4998732;28;20037;-62
2022/11/30 10:04:38;;;;;;;37.03;20.95;;;;;;;5.44;100.00;98524.50;5001144;28;20037;-63
2022/11/30 10:07:16;;;;;;;34.33;20.33;;;;;;;5.73;100.00;98568.78;5001249;28;20718;-61
2022/11/30 10:09:44;;;;;;;32.83;19.90;;;;;;;5.72;100.00;98569.69;5005664;28;20026;-64
2022/11/30 10:12:33;;;;;;;35.03;20.70;;;;;;;5.72;100.00;98569.69;5006527;28;20049;-64
2022/11/30 10:15:17;;;;;;;32.15;19.30;;;;;;;5.72;100.00;98568.88;5022969;28;20041;-68
2022/11/30 10:17:52;;;;;;;35.83;21.13;;;;;;;5.77;100.00;98574.53;5004911;28;20120;-63
2022/11/30 10:20:30;;;;;;;33.70;20.13;;;;;;;5.80;100.00;98573.47;5003460;28;20075;-66
2022/11/30 10:23:05;;;;;;;34.15;21.15;;;;;;;5.73;100.00;98575.66;4988800;28;20413;-64
2022/11/30 10:25:47;;;;;;;38.97;20.05;;;;;;;5.67;100.00;98571.78;5004367;28;20132;-62
2022/11/30 10:28:30;;;;;;;30.48;18.88;;;;;;;5.73;100.00;98565.34;5015585;28;20062;-62
2022/11/30 10:30:56;;;;;;;31.83;19.55;;;;;;;5.63;100.00;98556.66;4997591;28;20160;-64
2022/11/30 10:33:31;;;;;;;32.58;20.77;;;;;;;5.38;100.00;98522.38;5016267;28;20032;-62
2022/11/30 10:36:02;;;;;;;35.42;20.63;;;;;;;5.64;100.00;98553.97;4988425;28;20480;-64
2022/11/30 10:38:32;;;;;;;32.45;20.02;;;;;;;5.57;100.00;98555.38;4982948;28;20037;-62
2022/11/30 10:41:12;;;;;;;36.58;20.95;;;;;;;5.63;100.00;98559.25;5020127;28;20060;-64
2022/11/30 10:43:43;;;;;;;31.98;19.58;;;;;;;5.58;100.00;98563.00;5015048;28;20112;-63
2022/11/30 10:46:18;;;;;;;33.97;18.98;;;;;;;5.57;100.00;98560.53;5024194;28;20026;-61
2022/11/30 10:49:06;;;;;;;35.88;20.13;;;;;;;5.60;100.00;98578.34;5014981;28;20848;-62
2022/11/30 10:51:34;;;;;;;32.33;19.60;;;;;;;5.25;100.00;98519.88;5015295;28;20030;-62
2022/11/30 10:54:02;;;;;;;34.53;18.95;;;;;;;5.56;100.00;98575.16;5001100;28;20472;-63
2022/11/30 10:56:27;;;;;;;35.22;19.92;;;;;;;5.35;100.00;98522.63;5001536;28;20026;-67
2022/11/30 10:58:57;;;;;;;30.35;18.80;;;;;;;5.65;100.00;98568.50;5011224;28;20030;-63
2022/11/30 11:01:30;;;;;;;35.45;18.58;;;;;;;5.71;100.00;98562.91;5011944;28;20018;-64
2022/11/30 11:04:15;;;;;;;35.17;18.95;;;;;;;5.76;100.00;98554.81;5002215;28;20738;-66
2022/11/30 11:06:54;;;;;;;28.95;18.45;;;;;;;5.72;100.00;98537.91;5002408;28;21181;-62
2022/11/30 11:09:23;;;;;;;32.65;19.30;;;;;;;5.64;100.00;98559.13;4999028;28;20575;-63
2022/11/30 11:11:54;;;;;;;32.85;19.05;;;;;;;5.67;100.00;98563.22;5005270;28;20025;-64
2022/11/30 11:14:22;;;;;;;30.67;18.23;;;;;;;5.56;100.00;98551.94;5000440;28;20048;-64
2022/11/30 11:16:58;;;;;;;32.35;19.38;;;;;;;5.57;100.00;98557.94;4990149;28;20026;-66
2022/11/30 11:19:38;;;;;;;33.67;20.60;;;;;;;5.52;100.00;98547.97;5005706;28;20021;-63
2022/11/30 11:22:18;;;;;;;30.67;18.63;;;;;;;5.63;100.00;98560.06;4996188;28;20750;-67